LFAC Airport Information

Runway Information
Runway 06 Length 5036 ft width 148 ft
Elevation 11 ft Threshold 0 ft Heading 61
Runway 24 Length 5036 ft Width 148 ft
Elevation 11 ft Threshold 0 ft Heading 241
Airport Frequencies
Type APP Name LILLE APP Frequency 120.275 MHZ
Type ATIS Name ATIS Frequency 135.45 MHZ
Type TWR Name TWR Frequency 128.925 MHZ
Airport Navaids
Airport Weather Information & NOTAM
ADDS - METARS form results

(1757 UTC 24 May 2022)
Data provider http://aviationweather.gov/metar/data/
 
METAR text: LFAC 241730Z AUTO 26012KT 9999 BKN029 16/09 Q1010
Conditions at: LFAC (CALAIS/DUNKERQUE, FR) observed 1730 UTC 24 May 2022
Temperature: 16.0°C (61°F)
Dewpoint: 9.0°C (48°F) [RH = 63%]
Pressure (altimeter): 29.82 inches Hg (1010.0 mb)
Winds: from the W (260 degrees) at 14 MPH (12 knots; 6.2 m/s)
Visibility: 6 or more miles (10+ km)
Ceiling: 2900 feet AGL
Clouds: broken clouds at 2900 feet AGL
Weather: no significant weather observed at this time

METAR text: LFAC 241700Z AUTO 28012KT CAVOK 16/08 Q1010
Conditions at: LFAC (CALAIS/DUNKERQUE, FR) observed 1700 UTC 24 May 2022
Temperature: 16.0°C (61°F)
Dewpoint: 8.0°C (46°F) [RH = 59%]
Pressure (altimeter): 29.82 inches Hg (1010.0 mb)
Winds: from the W (280 degrees) at 14 MPH (12 knots; 6.2 m/s)
Visibility: 6 or more miles (10+ km)
Ceiling: ceiling and visibility are OK
Clouds: unknown
Weather: no significant weather observed at this time